createdAt,value
2023-02-19T00:02:00.891Z,5.40
2023-02-19T00:04:42.189Z,5.40
2023-02-19T00:07:19.765Z,5.00
2023-02-19T00:09:57.770Z,4.90
2023-02-19T00:12:33.008Z,4.90
2023-02-19T00:15:07.121Z,4.60
2023-02-19T00:17:42.670Z,4.60
2023-02-19T00:20:20.827Z,4.90
2023-02-19T00:23:02.049Z,4.30
2023-02-19T00:25:39.088Z,4.60
2023-02-19T00:28:11.869Z,4.90
2023-02-19T00:30:44.938Z,4.40
2023-02-19T00:33:15.422Z,4.10
2023-02-19T00:35:48.377Z,4.40
2023-02-19T00:38:18.510Z,4.20
2023-02-19T00:40:55.695Z,4.00
2023-02-19T00:43:33.749Z,4.40
2023-02-19T00:46:07.320Z,5.10
2023-02-19T00:48:45.164Z,3.80
2023-02-19T00:51:18.549Z,4.00
2023-02-19T00:53:56.605Z,4.20
2023-02-19T00:56:29.646Z,3.70
2023-02-19T00:59:01.842Z,4.10
2023-02-19T01:01:32.356Z,4.40
2023-02-19T01:04:12.964Z,4.60
2023-02-19T01:06:48.300Z,4.10
2023-02-19T01:09:26.206Z,3.80
2023-02-19T01:12:04.052Z,4.20
2023-02-19T01:14:41.093Z,4.30
2023-02-19T01:17:21.233Z,3.80
2023-02-19T01:19:55.655Z,4.10
2023-02-19T01:22:28.747Z,4.20
2023-02-19T01:25:01.231Z,3.80
2023-02-19T01:27:36.673Z,4.40
2023-02-19T01:30:12.276Z,3.60
2023-02-19T01:32:44.495Z,3.80
2023-02-19T01:35:15.192Z,4.60
2023-02-19T01:37:47.497Z,3.60
2023-02-19T01:40:20.238Z,4.00
2023-02-19T01:42:53.684Z,4.30
2023-02-19T01:45:29.642Z,4.70
2023-02-19T01:48:06.317Z,4.50
2023-02-19T01:50:44.219Z,4.40
2023-02-19T01:53:22.388Z,3.70
2023-02-19T01:55:58.845Z,3.90
2023-02-19T01:58:36.080Z,3.80
2023-02-19T02:01:11.689Z,3.60
2023-02-19T02:03:44.212Z,4.70
2023-02-19T02:06:23.051Z,4.20
2023-02-19T02:09:17.395Z,4.10
2023-02-19T02:11:53.162Z,3.80
2023-02-19T02:14:33.061Z,4.30
2023-02-19T02:17:19.402Z,4.00
2023-02-19T02:20:29.596Z,3.70
2023-02-19T02:23:18.551Z,3.60
2023-02-19T02:26:11.515Z,4.00
2023-02-19T02:29:32.948Z,3.40
2023-02-19T02:32:09.094Z,4.00
2023-02-19T02:34:52.835Z,3.50
2023-02-19T02:37:30.424Z,4.00
2023-02-19T02:40:07.972Z,3.90
2023-02-19T02:42:46.174Z,4.10
2023-02-19T02:45:38.991Z,3.50
2023-02-19T02:48:34.726Z,3.90
2023-02-19T02:51:16.286Z,4.10
2023-02-19T02:54:11.056Z,4.30
2023-02-19T02:56:48.379Z,4.00
2023-02-19T02:59:23.112Z,4.00
2023-02-19T03:02:14.909Z,3.50
2023-02-19T03:05:11.143Z,3.80
2023-02-19T03:07:52.540Z,4.10
2023-02-19T03:10:31.870Z,4.50
2023-02-19T03:13:23.076Z,3.70
2023-02-19T03:16:16.424Z,3.50
2023-02-19T03:19:19.132Z,3.70
2023-02-19T03:22:09.522Z,4.10
2023-02-19T03:25:11.080Z,4.00
2023-02-19T03:27:51.741Z,3.90
2023-02-19T03:30:25.824Z,4.10
2023-02-19T03:33:02.727Z,4.10
2023-02-19T03:35:35.755Z,3.20
2023-02-19T03:38:18.081Z,3.60
2023-02-19T03:40:58.570Z,4.20
2023-02-19T03:43:47.991Z,3.70
2023-02-19T03:46:27.422Z,3.70
2023-02-19T03:49:07.623Z,3.30
2023-02-19T03:51:50.705Z,3.70
2023-02-19T03:54:36.562Z,3.50
2023-02-19T03:57:21.289Z,3.50
2023-02-19T04:00:05.942Z,4.50
2023-02-19T04:02:43.241Z,4.80
2023-02-19T04:05:22.922Z,3.70
2023-02-19T04:08:05.637Z,4.50
2023-02-19T04:10:41.593Z,3.40
2023-02-19T04:13:19.855Z,4.10
2023-02-19T04:15:53.819Z,3.40
2023-02-19T04:18:30.979Z,4.10
2023-02-19T04:21:06.630Z,3.60
2023-02-19T04:23:45.082Z,4.20
2023-02-19T04:26:21.341Z,3.90
2023-02-19T04:28:56.779Z,2.80
2023-02-19T04:31:38.153Z,4.90
2023-02-19T04:34:08.476Z,3.40
2023-02-19T04:36:46.280Z,3.60
2023-02-19T04:39:22.023Z,3.60
2023-02-19T04:42:02.801Z,4.10
2023-02-19T04:44:38.179Z,3.40
2023-02-19T04:47:17.065Z,4.10
2023-02-19T04:49:52.734Z,3.90
2023-02-19T04:52:29.809Z,4.50
2023-02-19T04:55:07.481Z,3.60
2023-02-19T04:57:45.138Z,3.60
2023-02-19T05:00:16.887Z,3.70
2023-02-19T05:02:47.271Z,3.00
2023-02-19T05:05:22.224Z,4.20
2023-02-19T05:07:52.596Z,4.10
2023-02-19T05:10:30.283Z,4.30
2023-02-19T05:13:05.888Z,3.50
2023-02-19T05:15:39.518Z,4.60
2023-02-19T05:18:19.836Z,3.40
2023-02-19T05:20:55.448Z,4.80
2023-02-19T05:23:31.043Z,3.90
2023-02-19T05:26:06.591Z,4.40
2023-02-19T05:28:43.827Z,3.60
2023-02-19T05:31:16.655Z,3.20
2023-02-19T05:33:54.812Z,3.70
2023-02-19T05:36:29.646Z,3.80
2023-02-19T05:39:05.615Z,3.90
2023-02-19T05:41:38.641Z,3.50
2023-02-19T05:44:11.732Z,3.80
2023-02-19T05:46:49.340Z,3.70
2023-02-19T05:49:25.621Z,4.20
2023-02-19T05:52:02.067Z,4.40
2023-02-19T05:54:39.962Z,4.80
2023-02-19T05:57:15.050Z,4.30
2023-02-19T05:59:54.622Z,5.30
2023-02-19T06:02:27.325Z,4.90
2023-02-19T06:05:00.057Z,4.80
2023-02-19T06:07:31.384Z,5.00
2023-02-19T06:10:04.035Z,4.30
2023-02-19T06:12:44.504Z,5.20
2023-02-19T06:15:20.783Z,4.50
2023-02-19T06:17:56.407Z,4.90
2023-02-19T06:20:32.438Z,4.40
2023-02-19T06:23:06.672Z,4.80
2023-02-19T06:25:39.060Z,3.90
2023-02-19T06:28:18.804Z,5.30
2023-02-19T06:30:58.911Z,4.50
2023-02-19T06:33:32.066Z,4.60
2023-02-19T06:36:07.241Z,4.20
2023-02-19T06:38:42.789Z,4.60
2023-02-19T06:41:21.264Z,4.50
2023-02-19T06:43:51.734Z,4.70
2023-02-19T06:46:24.381Z,4.50
2023-02-19T06:49:00.377Z,4.30
2023-02-19T06:51:34.658Z,4.00
2023-02-19T06:56:40.485Z,4.60
2023-02-19T06:59:20.774Z,4.40
2023-02-19T07:01:55.222Z,4.40
2023-02-19T07:04:30.128Z,4.70
2023-02-19T07:07:05.525Z,4.40
2023-02-19T07:09:46.553Z,5.10
2023-02-19T07:12:19.073Z,4.80
2023-02-19T07:14:55.235Z,4.20
2023-02-19T07:17:33.290Z,4.60
2023-02-19T07:20:06.638Z,4.70
2023-02-19T07:22:39.830Z,4.60
2023-02-19T07:25:15.274Z,3.70
2023-02-19T07:27:47.802Z,4.30
2023-02-19T07:30:21.642Z,4.40
2023-02-19T07:32:56.390Z,4.40
2023-02-19T07:35:37.363Z,3.80
2023-02-19T07:38:08.407Z,4.30
2023-02-19T07:40:45.908Z,4.40
2023-02-19T07:43:23.857Z,3.90
2023-02-19T07:46:01.463Z,4.40
2023-02-19T07:48:38.994Z,4.20
2023-02-19T07:51:20.175Z,4.50
2023-02-19T07:53:54.905Z,4.40
2023-02-19T07:56:32.448Z,4.20
2023-02-19T07:59:08.970Z,4.40
2023-02-19T08:01:57.661Z,4.50
2023-02-19T08:04:35.361Z,4.30
2023-02-19T08:07:10.545Z,4.10
2023-02-19T08:10:06.053Z,4.70
2023-02-19T08:13:00.120Z,3.80
2023-02-19T08:15:36.317Z,4.70
2023-02-19T08:18:14.193Z,5.00
2023-02-19T08:20:47.298Z,4.80
2023-02-19T08:23:17.803Z,4.40
2023-02-19T08:25:49.729Z,4.10
2023-02-19T08:28:31.711Z,4.20
2023-02-19T08:31:08.538Z,4.50
2023-02-19T08:33:41.265Z,4.80
2023-02-19T08:36:14.517Z,4.00
2023-02-19T08:38:51.436Z,4.30
2023-02-19T08:41:21.831Z,4.50
2023-02-19T08:43:58.195Z,4.10
2023-02-19T08:46:33.451Z,3.90
2023-02-19T08:49:10.050Z,4.40
2023-02-19T08:51:45.090Z,5.30
2023-02-19T08:54:19.563Z,4.10
2023-02-19T08:56:58.997Z,4.40
2023-02-19T08:59:33.112Z,4.20
2023-02-19T09:02:08.606Z,4.50
2023-02-19T09:04:45.848Z,4.00
2023-02-19T09:07:18.397Z,4.70
2023-02-19T09:09:51.261Z,4.20
2023-02-19T09:12:29.158Z,3.80
2023-02-19T09:15:06.020Z,4.20
2023-02-19T09:17:40.571Z,4.10
2023-02-19T09:20:16.475Z,4.60
2023-02-19T09:22:51.509Z,5.40
2023-02-19T09:25:27.421Z,5.60
2023-02-19T09:28:05.469Z,5.30
2023-02-19T09:30:41.694Z,5.70
2023-02-19T09:33:24.759Z,4.50
2023-02-19T09:36:03.735Z,5.90
2023-02-19T09:38:36.573Z,5.00
2023-02-19T09:41:17.649Z,5.40
2023-02-19T09:43:57.720Z,6.00
2023-02-19T09:46:37.479Z,5.70
2023-02-19T09:49:16.101Z,6.80
2023-02-19T09:51:51.395Z,6.40
2023-02-19T09:54:26.535Z,6.90
2023-02-19T09:57:02.386Z,7.40
2023-02-19T09:59:44.479Z,6.20
2023-02-19T10:02:22.940Z,5.70
2023-02-19T10:04:59.213Z,5.90
2023-02-19T10:07:41.972Z,7.10
2023-02-19T10:10:28.767Z,6.00
2023-02-19T10:13:16.085Z,7.70
2023-02-19T10:15:50.702Z,7.00
2023-02-19T10:18:23.869Z,7.00
2023-02-19T10:20:57.725Z,7.50
2023-02-19T10:23:31.110Z,6.50
2023-02-19T10:26:05.440Z,6.80
2023-02-19T10:28:42.952Z,6.00
2023-02-19T10:31:21.327Z,6.70
2023-02-19T10:33:53.254Z,7.00
2023-02-19T10:39:00.305Z,6.70
2023-02-19T10:41:46.766Z,6.00
2023-02-19T10:44:29.669Z,5.70
2023-02-19T10:47:04.352Z,6.70
2023-02-19T10:49:43.448Z,7.00
2023-02-19T10:52:17.340Z,6.90
2023-02-19T10:54:51.655Z,6.20
2023-02-19T10:57:33.976Z,6.30
2023-02-19T11:00:26.204Z,6.00
2023-02-19T11:03:18.413Z,5.50
2023-02-19T11:06:06.292Z,5.30
2023-02-19T11:08:58.361Z,5.10
2023-02-19T11:11:34.676Z,4.90
2023-02-19T11:14:19.022Z,5.30
2023-02-19T11:16:58.625Z,5.20
2023-02-19T11:19:41.641Z,5.50
2023-02-19T11:22:30.037Z,5.00
2023-02-19T11:25:19.765Z,4.60
2023-02-19T11:28:07.787Z,5.50
2023-02-19T11:30:40.983Z,5.20
2023-02-19T11:33:27.670Z,4.30
2023-02-19T11:36:24.847Z,4.70
2023-02-19T11:38:58.888Z,5.90
2023-02-19T11:42:04.568Z,5.60
2023-02-19T11:44:52.308Z,4.50
2023-02-19T11:48:08.384Z,5.10
2023-02-19T11:50:57.011Z,4.30
2023-02-19T11:53:33.288Z,5.10
2023-02-19T11:56:19.925Z,4.90
2023-02-19T11:59:06.424Z,5.00
2023-02-19T12:02:07.503Z,4.50
2023-02-19T12:05:19.449Z,5.00
2023-02-19T12:08:44.869Z,5.50
2023-02-19T12:11:53.162Z,4.70
2023-02-19T12:15:09.231Z,5.90
2023-02-19T12:18:20.856Z,4.30
2023-02-19T12:21:10.415Z,4.40
2023-02-19T12:24:45.634Z,4.40
2023-02-19T12:27:27.363Z,4.00
2023-02-19T12:30:28.928Z,4.20
2023-02-19T12:33:24.052Z,4.50
2023-02-19T12:36:06.814Z,3.90
2023-02-19T12:38:45.183Z,4.10
2023-02-19T12:41:30.286Z,4.40
2023-02-19T12:44:05.780Z,3.70
2023-02-19T12:46:43.560Z,4.40
2023-02-19T12:49:19.704Z,4.20
2023-02-19T12:51:57.902Z,4.00
2023-02-19T12:54:38.168Z,4.50
2023-02-19T12:57:17.329Z,4.00
2023-02-19T12:59:55.507Z,4.40
2023-02-19T13:02:35.584Z,3.60
2023-02-19T13:05:18.960Z,4.30
2023-02-19T13:08:04.655Z,4.10
2023-02-19T13:10:40.879Z,4.30
2023-02-19T13:13:23.240Z,3.60
2023-02-19T13:15:59.129Z,4.50
2023-02-19T13:18:39.948Z,4.00
2023-02-19T13:21:37.311Z,5.00
2023-02-19T13:24:16.070Z,3.90
2023-02-19T13:27:17.144Z,4.80
2023-02-19T13:30:07.206Z,4.00
2023-02-19T13:32:58.740Z,3.70
2023-02-19T13:36:05.852Z,4.20
2023-02-19T13:38:41.449Z,4.10
2023-02-19T13:41:31.742Z,4.40
2023-02-19T13:44:08.511Z,4.30
2023-02-19T13:46:42.111Z,4.60
2023-02-19T13:49:45.651Z,4.30
2023-02-19T13:52:41.714Z,4.30
2023-02-19T13:55:52.260Z,4.70
2023-02-19T13:59:01.370Z,4.20
2023-02-19T14:02:26.329Z,4.20
2023-02-19T14:04:59.644Z,4.10
2023-02-19T14:07:58.496Z,5.10
2023-02-19T14:11:08.374Z,4.50
2023-02-19T14:14:09.235Z,4.70
2023-02-19T14:17:08.011Z,5.20
2023-02-19T14:20:01.405Z,6.10
2023-02-19T14:23:13.781Z,4.80
2023-02-19T14:25:52.167Z,5.20
2023-02-19T14:28:36.565Z,4.40
2023-02-19T14:31:26.538Z,4.30
2023-02-19T14:34:06.741Z,4.50
2023-02-19T14:36:49.717Z,4.60
2023-02-19T14:39:37.490Z,4.70
2023-02-19T14:42:18.345Z,5.00
2023-02-19T14:44:57.080Z,6.00
2023-02-19T14:47:34.394Z,6.10
2023-02-19T14:50:11.577Z,6.30
2023-02-19T14:52:47.541Z,5.70
2023-02-19T14:55:27.401Z,6.40
2023-02-19T14:58:00.260Z,6.70
2023-02-19T15:00:34.935Z,7.00
2023-02-19T15:03:20.651Z,9.50
2023-02-19T15:05:59.623Z,10.00
2023-02-19T15:08:38.580Z,9.70
2023-02-19T15:11:16.764Z,12.50
2023-02-19T15:13:51.211Z,10.00
2023-02-19T15:16:25.533Z,11.60
2023-02-19T15:18:57.988Z,12.10
2023-02-19T15:21:30.641Z,11.20
2023-02-19T15:24:03.508Z,13.00
2023-02-19T15:26:45.352Z,13.20
2023-02-19T15:29:23.872Z,11.50
2023-02-19T15:32:00.787Z,10.30
2023-02-19T15:34:32.750Z,12.40
2023-02-19T15:39:46.951Z,13.40
2023-02-19T15:42:21.492Z,11.50
2023-02-19T15:45:00.882Z,12.70
2023-02-19T15:47:44.088Z,10.20
2023-02-19T15:50:17.531Z,10.90
2023-02-19T15:52:59.287Z,10.20
2023-02-19T15:55:43.851Z,10.40
2023-02-19T15:58:27.690Z,9.90
2023-02-19T16:01:14.393Z,11.00
2023-02-19T16:03:53.619Z,11.80
2023-02-19T16:06:30.399Z,9.50
2023-02-19T16:09:05.175Z,10.50
2023-02-19T16:11:51.215Z,10.90
2023-02-19T16:14:30.086Z,9.60
2023-02-19T16:17:14.591Z,9.50
2023-02-19T16:19:51.880Z,8.80
2023-02-19T16:22:32.794Z,9.50
2023-02-19T16:25:22.724Z,8.70
2023-02-19T16:27:57.658Z,9.00
2023-02-19T16:30:37.826Z,10.70
2023-02-19T16:33:43.807Z,8.80
2023-02-19T16:36:41.202Z,8.70
2023-02-19T16:39:24.239Z,8.40
2023-02-19T16:42:18.900Z,8.50
2023-02-19T16:44:53.225Z,8.20
2023-02-19T16:50:01.662Z,7.80
2023-02-19T16:52:32.984Z,8.20
2023-02-19T16:55:13.955Z,7.80
2023-02-19T16:57:48.876Z,8.50
2023-02-19T17:00:24.662Z,8.30
2023-02-19T17:03:08.448Z,7.90
2023-02-19T17:05:42.361Z,6.60
2023-02-19T17:08:28.777Z,7.10
2023-02-19T17:11:07.488Z,7.80
2023-02-19T17:14:00.384Z,7.70
2023-02-19T17:16:39.389Z,8.00
2023-02-19T17:19:18.342Z,7.70
2023-02-19T17:21:58.423Z,7.90
2023-02-19T17:24:33.674Z,7.60
2023-02-19T17:27:04.245Z,7.30
2023-02-19T17:29:36.826Z,6.70
2023-02-19T17:32:13.888Z,7.40
2023-02-19T17:34:49.147Z,8.50
2023-02-19T17:37:23.793Z,7.50
2023-02-19T17:39:56.224Z,6.30
2023-02-19T17:42:33.621Z,7.30
2023-02-19T17:45:04.071Z,6.00
2023-02-19T17:47:34.257Z,6.50
2023-02-19T17:50:10.272Z,7.30
2023-02-19T17:52:46.110Z,6.50
2023-02-19T17:55:18.653Z,6.30
2023-02-19T17:57:55.730Z,6.40
2023-02-19T18:00:29.288Z,6.40
2023-02-19T18:03:06.899Z,6.60
2023-02-19T18:05:48.112Z,6.30
2023-02-19T18:08:23.299Z,6.00
2023-02-19T18:10:58.985Z,6.30
2023-02-19T18:13:35.773Z,6.60
2023-02-19T18:16:07.520Z,5.70
2023-02-19T18:21:18.672Z,5.80
2023-02-19T18:23:51.510Z,5.70
2023-02-19T18:26:27.107Z,6.20
2023-02-19T18:29:01.785Z,6.90
2023-02-19T18:31:37.539Z,6.30
2023-02-19T18:34:17.380Z,6.10
2023-02-19T18:36:48.680Z,6.90
2023-02-19T18:39:19.475Z,6.40
2023-02-19T18:41:55.074Z,6.20
2023-02-19T18:44:26.882Z,6.50
2023-02-19T18:46:57.111Z,6.40
2023-02-19T18:49:36.135Z,6.60
2023-02-19T18:52:11.735Z,6.40
2023-02-19T18:54:46.645Z,6.40
2023-02-19T18:57:26.159Z,6.30
2023-02-19T18:59:58.737Z,6.20
2023-02-19T19:02:48.405Z,5.90
2023-02-19T19:05:22.438Z,6.70
2023-02-19T19:07:54.909Z,5.90
2023-02-19T19:10:30.411Z,7.30
2023-02-19T19:13:05.970Z,6.00
2023-02-19T19:15:39.323Z,6.20
2023-02-19T19:18:19.915Z,6.20
2023-02-19T19:21:00.583Z,6.40
2023-02-19T19:23:35.467Z,6.50
2023-02-19T19:26:08.521Z,6.60
2023-02-19T19:28:44.516Z,5.70
2023-02-19T19:31:20.818Z,6.80
2023-02-19T19:34:01.204Z,6.30
2023-02-19T19:36:41.543Z,5.90
2023-02-19T19:39:14.652Z,6.70
2023-02-19T19:41:49.903Z,6.50
2023-02-19T19:44:32.736Z,7.10
2023-02-19T19:47:08.375Z,7.70
2023-02-19T19:49:41.025Z,6.70
2023-02-19T19:52:16.312Z,6.80
2023-02-19T19:54:46.423Z,6.60
2023-02-19T19:57:18.544Z,7.50
2023-02-19T19:59:54.096Z,7.20
2023-02-19T20:02:26.539Z,7.80
2023-02-19T20:04:58.486Z,6.80
2023-02-19T20:07:30.942Z,7.10
2023-02-19T20:10:01.095Z,6.90
2023-02-19T20:12:35.116Z,6.90
2023-02-19T20:15:10.707Z,6.80
2023-02-19T20:17:41.235Z,7.60
2023-02-19T20:20:17.049Z,7.10
2023-02-19T20:22:53.099Z,6.60
2023-02-19T20:25:27.571Z,7.00
2023-02-19T20:28:02.912Z,7.50
2023-02-19T20:30:37.564Z,5.90
2023-02-19T20:33:11.654Z,6.20
2023-02-19T20:35:46.399Z,6.40
2023-02-19T20:38:18.707Z,7.30
2023-02-19T20:40:50.929Z,5.60
2023-02-19T20:43:27.268Z,7.70
2023-02-19T20:45:58.810Z,5.80
2023-02-19T20:48:28.715Z,6.70
2023-02-19T20:51:01.367Z,6.40
2023-02-19T20:53:34.416Z,7.10
2023-02-19T20:56:06.403Z,5.90
2023-02-19T20:58:36.221Z,5.70
2023-02-19T21:01:06.520Z,5.70
2023-02-19T21:03:43.302Z,6.00
2023-02-19T21:06:15.454Z,5.90
2023-02-19T21:08:44.759Z,6.10
2023-02-19T21:11:14.475Z,6.10
2023-02-19T21:13:44.497Z,5.40
2023-02-19T21:16:14.394Z,6.00
2023-02-19T21:18:44.262Z,6.70
2023-02-19T21:21:21.526Z,6.60
2023-02-19T21:23:51.795Z,5.40
2023-02-19T21:26:25.135Z,6.60
2023-02-19T21:29:00.359Z,6.00
2023-02-19T21:31:44.601Z,5.60
2023-02-19T21:36:56.700Z,5.50
2023-02-19T21:39:35.204Z,5.70
2023-02-19T21:42:08.554Z,5.30
2023-02-19T21:44:43.027Z,5.70
2023-02-19T21:47:13.712Z,5.20
2023-02-19T21:49:52.173Z,5.70
2023-02-19T21:52:32.667Z,5.60
2023-02-19T21:55:06.253Z,6.60
2023-02-19T21:57:36.131Z,5.50
2023-02-19T22:00:10.304Z,6.40
2023-02-19T22:02:39.821Z,5.60
2023-02-19T22:05:10.586Z,5.50
2023-02-19T22:07:43.916Z,5.00
2023-02-19T22:10:22.751Z,5.30
2023-02-19T22:12:55.469Z,5.50
2023-02-19T22:15:25.547Z,5.60
2023-02-19T22:18:02.935Z,5.60
2023-02-19T22:20:40.993Z,5.60
2023-02-19T22:23:13.876Z,5.10
2023-02-19T22:25:48.229Z,5.80
2023-02-19T22:28:29.711Z,5.10
2023-02-19T22:31:02.622Z,4.80
2023-02-19T22:33:38.505Z,4.70
2023-02-19T22:36:21.131Z,4.70
2023-02-19T22:38:58.943Z,4.80
2023-02-19T22:41:35.155Z,4.90
2023-02-19T22:44:13.763Z,4.60
2023-02-19T22:46:55.126Z,6.60
2023-02-19T22:49:38.325Z,4.60
2023-02-19T22:52:11.354Z,4.90
2023-02-19T22:54:46.645Z,4.90
2023-02-19T22:57:26.034Z,5.70
2023-02-19T23:00:04.746Z,4.50
2023-02-19T23:02:35.736Z,4.80
2023-02-19T23:05:06.482Z,4.80
2023-02-19T23:07:43.644Z,4.50
2023-02-19T23:10:17.774Z,4.70
2023-02-19T23:12:52.617Z,4.90
2023-02-19T23:15:24.842Z,5.20
2023-02-19T23:18:00.131Z,5.40
2023-02-19T23:20:39.307Z,4.90
2023-02-19T23:23:15.688Z,5.20
2023-02-19T23:25:52.402Z,4.60
2023-02-19T23:28:28.363Z,5.20
2023-02-19T23:31:03.243Z,5.00
2023-02-19T23:33:40.430Z,4.80
2023-02-19T23:36:13.956Z,5.30
2023-02-19T23:38:46.454Z,5.30
2023-02-19T23:41:23.229Z,5.20
2023-02-19T23:44:03.748Z,5.00
2023-02-19T23:46:41.545Z,5.20
2023-02-19T23:49:14.613Z,4.20
2023-02-19T23:51:57.384Z,4.60
2023-02-19T23:54:30.891Z,4.80
2023-02-19T23:57:05.688Z,5.80
2023-02-19T23:59:40.412Z,5.30
